createdAt,value
2023-05-14T00:01:30.715Z,7.40
2023-05-14T00:03:58.634Z,6.80
2023-05-14T00:06:26.096Z,7.07
2023-05-14T00:08:53.306Z,5.37
2023-05-14T00:11:21.585Z,5.30
2023-05-14T00:13:49.934Z,9.57
2023-05-14T00:16:17.305Z,5.78
2023-05-14T00:18:44.989Z,5.13
2023-05-14T00:21:13.056Z,6.90
2023-05-14T00:23:40.408Z,6.53
2023-05-14T00:26:08.088Z,8.37
2023-05-14T00:28:35.615Z,5.50
2023-05-14T00:31:02.853Z,7.60
2023-05-14T00:33:31.054Z,5.60
2023-05-14T00:35:58.267Z,6.73
2023-05-14T00:38:27.930Z,5.37
2023-05-14T00:40:56.025Z,4.43
2023-05-14T00:43:23.354Z,6.23
2023-05-14T00:45:52.604Z,5.40
2023-05-14T00:48:21.865Z,4.30
2023-05-14T00:50:51.031Z,9.75
2023-05-14T00:55:48.927Z,5.75
2023-05-14T00:58:16.572Z,9.30
2023-05-14T01:00:44.098Z,7.63
2023-05-14T01:03:12.055Z,7.00
2023-05-14T01:06:08.644Z,4.60
2023-05-14T01:09:18.584Z,4.70
2023-05-14T01:12:15.358Z,7.87
2023-05-14T01:15:21.983Z,5.30
2023-05-14T01:17:54.138Z,5.20
2023-05-14T01:20:22.410Z,6.03
2023-05-14T01:22:50.111Z,7.27
2023-05-14T01:25:17.538Z,5.60
2023-05-14T01:28:23.511Z,4.73
2023-05-14T01:30:59.621Z,5.03
2023-05-14T01:33:29.664Z,6.87
2023-05-14T01:35:58.827Z,5.60
2023-05-14T01:38:30.998Z,5.97
2023-05-14T01:40:59.692Z,3.90
2023-05-14T01:45:55.815Z,6.67
2023-05-14T01:48:23.105Z,4.90
2023-05-14T01:50:51.657Z,6.77
2023-05-14T01:53:19.092Z,9.03
2023-05-14T01:55:46.285Z,5.50
2023-05-14T01:58:13.998Z,5.73
2023-05-14T02:00:41.279Z,8.33
2023-05-14T02:03:09.132Z,4.20
2023-05-14T02:05:36.619Z,5.27
2023-05-14T02:08:04.081Z,6.50
2023-05-14T02:10:32.850Z,4.03
2023-05-14T02:13:00.563Z,9.73
2023-05-14T02:15:27.871Z,6.27
2023-05-14T02:17:55.142Z,5.37
2023-05-14T02:20:22.822Z,3.97
2023-05-14T02:22:50.110Z,6.93
2023-05-14T02:25:17.466Z,9.23
2023-05-14T02:27:45.074Z,8.63
2023-05-14T02:30:12.925Z,4.33
2023-05-14T02:32:40.473Z,5.70
2023-05-14T02:35:08.653Z,4.03
2023-05-14T02:37:35.973Z,8.67
2023-05-14T02:40:04.599Z,5.50
2023-05-14T02:42:32.712Z,4.47
2023-05-14T02:45:00.103Z,5.57
2023-05-14T02:47:27.407Z,4.67
2023-05-14T02:49:56.693Z,4.37
2023-05-14T02:52:24.077Z,5.33
2023-05-14T02:54:51.317Z,7.10
2023-05-14T02:57:18.896Z,7.37
2023-05-14T02:59:46.193Z,4.00
2023-05-14T03:02:13.880Z,5.07
2023-05-14T03:04:41.876Z,5.47
2023-05-14T03:07:09.301Z,3.47
2023-05-14T03:09:38.316Z,8.63
2023-05-14T03:12:07.725Z,6.30
2023-05-14T03:14:34.992Z,4.47
2023-05-14T03:17:02.772Z,3.20
2023-05-14T03:19:30.480Z,5.63
2023-05-14T03:21:57.985Z,6.07
2023-05-14T03:24:25.876Z,8.77
2023-05-14T03:26:53.659Z,4.82
2023-05-14T03:29:20.998Z,8.23
2023-05-14T03:31:48.456Z,7.57
2023-05-14T03:34:16.293Z,5.10
2023-05-14T03:36:43.685Z,5.20
2023-05-14T03:39:11.058Z,7.87
2023-05-14T03:41:39.443Z,6.00
2023-05-14T03:44:06.914Z,7.07
2023-05-14T03:46:34.562Z,5.00
2023-05-14T03:49:02.629Z,6.23
2023-05-14T03:51:29.959Z,5.77
2023-05-14T03:53:58.517Z,5.00
2023-05-14T03:56:26.384Z,5.72
2023-05-14T03:58:53.689Z,4.90
2023-05-14T04:01:20.972Z,4.50
2023-05-14T04:03:48.840Z,6.63
2023-05-14T04:06:16.377Z,4.77
2023-05-14T04:08:43.749Z,6.73
2023-05-14T04:11:11.454Z,7.00
2023-05-14T04:13:38.940Z,15.57
2023-05-14T04:16:06.590Z,8.03
2023-05-14T04:18:35.967Z,8.07
2023-05-14T04:21:03.391Z,6.60
2023-05-14T04:23:32.095Z,6.47
2023-05-14T04:25:59.944Z,6.03
2023-05-14T04:28:27.222Z,7.77
2023-05-14T04:30:54.682Z,4.77
2023-05-14T04:33:22.708Z,7.43
2023-05-14T04:35:52.359Z,4.23
2023-05-14T04:38:20.058Z,6.43
2023-05-14T04:40:47.837Z,6.13
2023-05-14T04:43:15.359Z,6.30
2023-05-14T04:45:43.326Z,4.87
2023-05-14T04:48:11.161Z,6.95
2023-05-14T04:50:38.623Z,7.57
2023-05-14T04:53:05.955Z,5.50
2023-05-14T04:55:33.686Z,8.80
2023-05-14T04:58:01.051Z,5.50
2023-05-14T05:00:28.940Z,4.47
2023-05-14T05:02:56.676Z,6.47
2023-05-14T05:05:24.160Z,8.10
2023-05-14T05:15:26.698Z,6.20
2023-05-14T05:17:54.961Z,5.25
2023-05-14T05:20:22.550Z,10.17
2023-05-14T05:22:50.786Z,4.83
2023-05-14T05:25:18.919Z,5.75
2023-05-14T05:27:54.750Z,8.50
2023-05-14T05:30:22.810Z,6.27
2023-05-14T05:32:50.761Z,7.50
2023-05-14T05:35:18.272Z,5.70
2023-05-14T05:37:46.258Z,5.83
2023-05-14T05:40:14.953Z,6.70
2023-05-14T05:42:43.120Z,10.43
2023-05-14T05:45:11.350Z,5.97
2023-05-14T05:47:38.742Z,7.60
2023-05-14T05:50:07.724Z,9.77
2023-05-14T05:52:35.822Z,9.67
2023-05-14T05:55:03.324Z,7.73
2023-05-14T05:57:30.861Z,7.47
2023-05-14T06:00:24.427Z,8.77
2023-05-14T06:02:53.398Z,7.27
2023-05-14T06:05:20.768Z,7.90
2023-05-14T06:07:48.168Z,11.73
2023-05-14T06:10:15.868Z,8.27
2023-05-14T06:12:43.210Z,7.03
2023-05-14T06:15:12.358Z,11.33
2023-05-14T06:17:41.103Z,14.33
2023-05-14T06:20:09.220Z,7.37
2023-05-14T06:22:36.641Z,10.87
2023-05-14T06:25:04.896Z,8.07
2023-05-14T06:27:32.386Z,10.70
2023-05-14T06:29:59.696Z,8.03
2023-05-14T06:32:27.357Z,9.50
2023-05-14T06:34:54.799Z,9.47
2023-05-14T06:37:23.362Z,8.75
2023-05-14T06:39:51.183Z,7.73
2023-05-14T06:42:18.514Z,11.90
2023-05-14T06:44:46.979Z,11.20
2023-05-14T06:47:15.252Z,7.30
2023-05-14T06:49:43.217Z,8.13
2023-05-14T06:52:11.181Z,11.40
2023-05-14T06:54:39.572Z,12.23
2023-05-14T06:57:06.970Z,11.50
2023-05-14T06:59:34.377Z,9.03
2023-05-14T07:02:03.336Z,8.47
2023-05-14T07:04:37.085Z,6.30
2023-05-14T07:07:13.053Z,6.57
2023-05-14T07:09:51.992Z,12.17
2023-05-14T07:12:20.235Z,9.30
2023-05-14T07:15:12.721Z,10.73
2023-05-14T07:17:45.634Z,9.70
2023-05-14T07:20:16.202Z,7.60
2023-05-14T07:22:56.643Z,11.50
2023-05-14T07:25:24.151Z,8.97
2023-05-14T07:27:59.152Z,10.93
2023-05-14T07:30:29.450Z,9.37
2023-05-14T07:32:59.099Z,8.32
2023-05-14T07:35:30.914Z,9.07
2023-05-14T07:38:00.226Z,7.57
2023-05-14T07:40:32.683Z,7.63
2023-05-14T07:43:05.027Z,8.20
2023-05-14T07:45:40.201Z,9.20
2023-05-14T07:48:13.834Z,8.33
2023-05-14T07:50:50.241Z,9.43
2023-05-14T07:53:27.473Z,7.03
2023-05-14T07:55:58.876Z,7.03
2023-05-14T07:58:33.254Z,11.70
2023-05-14T08:01:01.818Z,10.30
2023-05-14T08:03:31.963Z,14.83
2023-05-14T08:06:05.489Z,14.83
2023-05-14T08:08:38.246Z,12.93
2023-05-14T08:11:15.760Z,8.13
2023-05-14T08:13:44.079Z,8.93
2023-05-14T08:16:20.746Z,9.33
2023-05-14T08:18:53.545Z,17.17
2023-05-14T08:21:22.620Z,24.20
2023-05-14T08:23:55.786Z,15.10
2023-05-14T08:26:23.814Z,24.07
2023-05-14T08:28:59.404Z,18.67
2023-05-14T08:31:27.011Z,9.10
2023-05-14T08:33:57.774Z,10.38
2023-05-14T08:36:25.259Z,14.23
2023-05-14T08:38:52.959Z,12.13
2023-05-14T08:41:23.765Z,10.60
2023-05-14T08:44:14.151Z,13.53
2023-05-14T08:46:48.807Z,9.40
2023-05-14T08:49:29.736Z,8.97
2023-05-14T08:51:58.227Z,10.77
2023-05-14T08:54:27.224Z,7.57
2023-05-14T08:57:13.769Z,9.27
2023-05-14T08:59:42.998Z,9.07
2023-05-14T09:02:16.340Z,11.88
2023-05-14T09:05:00.065Z,9.23
2023-05-14T09:07:27.837Z,11.13
2023-05-14T09:10:00.044Z,9.10
2023-05-14T09:12:31.000Z,11.93
2023-05-14T09:15:02.328Z,7.53
2023-05-14T09:17:38.742Z,7.93
2023-05-14T09:20:07.680Z,8.20
2023-05-14T09:22:35.046Z,9.77
2023-05-14T09:25:04.946Z,10.23
2023-05-14T09:27:39.022Z,12.03
2023-05-14T09:30:11.522Z,12.80
2023-05-14T09:32:50.343Z,10.70
2023-05-14T09:35:22.140Z,7.87
2023-05-14T09:37:53.876Z,9.20
2023-05-14T09:40:25.128Z,11.90
2023-05-14T09:42:53.586Z,13.20
2023-05-14T09:45:21.193Z,9.13
2023-05-14T09:47:49.076Z,8.27
2023-05-14T09:50:19.986Z,10.13
2023-05-14T09:55:21.661Z,8.63
2023-05-14T09:57:49.283Z,12.47
2023-05-14T10:00:17.332Z,12.80
2023-05-14T10:03:01.889Z,10.13
2023-05-14T10:05:31.675Z,10.87
2023-05-14T10:08:03.820Z,10.33
2023-05-14T10:10:33.152Z,10.83
2023-05-14T10:13:05.300Z,10.90
2023-05-14T10:16:06.047Z,12.97
2023-05-14T10:18:41.396Z,14.10
2023-05-14T10:21:11.599Z,11.80
2023-05-14T10:23:40.802Z,11.03
2023-05-14T10:26:10.813Z,9.63
2023-05-14T10:28:38.259Z,10.90
2023-05-14T10:31:11.060Z,8.55
2023-05-14T10:33:53.133Z,14.93
2023-05-14T10:36:21.203Z,10.23
2023-05-14T10:38:57.407Z,9.87
2023-05-14T10:41:25.350Z,13.20
2023-05-14T10:43:52.934Z,8.07
2023-05-14T10:46:21.244Z,8.67
2023-05-14T10:48:50.126Z,9.55
2023-05-14T10:51:20.964Z,7.70
2023-05-14T10:53:49.343Z,8.60
2023-05-14T10:56:17.427Z,5.73
2023-05-14T10:58:45.988Z,6.93
2023-05-14T11:01:14.095Z,8.73
2023-05-14T11:03:43.840Z,8.60
2023-05-14T11:06:13.960Z,11.90
2023-05-14T11:08:42.047Z,9.20
2023-05-14T11:11:10.154Z,7.43
2023-05-14T11:13:41.345Z,7.20
2023-05-14T11:16:21.957Z,7.63
2023-05-14T11:19:02.455Z,9.00
2023-05-14T11:21:33.039Z,9.13
2023-05-14T11:24:07.740Z,8.37
2023-05-14T11:26:37.231Z,8.57
2023-05-14T11:29:05.506Z,8.27
2023-05-14T11:31:43.669Z,8.00
2023-05-14T11:34:11.978Z,7.95
2023-05-14T11:36:46.140Z,9.83
2023-05-14T11:39:21.517Z,7.27
2023-05-14T11:41:50.867Z,7.70
2023-05-14T11:44:19.618Z,7.45
2023-05-14T11:46:56.006Z,8.20
2023-05-14T11:49:29.227Z,8.83
2023-05-14T11:52:00.825Z,9.30
2023-05-14T11:54:29.167Z,10.40
2023-05-14T11:56:57.378Z,10.50
2023-05-14T11:59:26.024Z,8.83
2023-05-14T12:01:54.673Z,8.75
2023-05-14T12:04:22.965Z,13.30
2023-05-14T12:06:51.556Z,12.23
2023-05-14T12:09:22.861Z,11.48
2023-05-14T12:11:51.829Z,9.80
2023-05-14T12:14:23.883Z,10.88
2023-05-14T12:16:52.040Z,11.47
2023-05-14T12:19:20.964Z,11.97
2023-05-14T12:21:51.165Z,13.60
2023-05-14T12:24:22.106Z,10.30
2023-05-14T12:26:51.037Z,10.97
2023-05-14T12:29:18.769Z,11.60
2023-05-14T12:31:50.179Z,12.47
2023-05-14T12:34:17.916Z,12.68
2023-05-14T12:36:45.564Z,14.80
2023-05-14T12:39:12.860Z,13.77
2023-05-14T12:41:40.353Z,19.27
2023-05-14T12:44:08.005Z,17.73
2023-05-14T12:46:35.450Z,18.20
2023-05-14T12:49:02.907Z,15.97
2023-05-14T12:51:31.271Z,47.10
2023-05-14T12:53:58.679Z,21.23
2023-05-14T12:56:28.583Z,17.90
2023-05-14T12:58:56.661Z,19.43
2023-05-14T13:01:24.956Z,19.30
2023-05-14T13:03:52.469Z,17.37
2023-05-14T13:06:20.180Z,20.93
2023-05-14T13:08:47.475Z,22.37
2023-05-14T13:11:15.188Z,21.00
2023-05-14T13:13:42.879Z,18.33
2023-05-14T13:16:10.746Z,18.23
2023-05-14T13:18:38.091Z,21.97
2023-05-14T13:21:06.610Z,18.87
2023-05-14T13:23:34.070Z,22.27
2023-05-14T13:26:01.410Z,20.50
2023-05-14T13:28:29.140Z,22.77
2023-05-14T13:31:08.053Z,25.33
2023-05-14T13:33:37.400Z,20.10
2023-05-14T13:36:05.113Z,18.42
2023-05-14T13:38:32.599Z,24.63
2023-05-14T13:41:02.766Z,28.90
2023-05-14T13:43:34.759Z,24.90
2023-05-14T13:46:04.302Z,20.97
2023-05-14T13:48:31.886Z,23.60
2023-05-14T13:50:59.552Z,27.80
2023-05-14T13:53:27.382Z,28.60
2023-05-14T13:55:58.688Z,24.00
2023-05-14T13:58:26.061Z,28.13
2023-05-14T14:00:54.387Z,30.57
2023-05-14T14:03:22.339Z,25.30
2023-05-14T14:05:50.262Z,23.33
2023-05-14T14:08:23.566Z,21.57
2023-05-14T14:10:54.721Z,23.10
2023-05-14T14:13:23.049Z,22.17
2023-05-14T14:15:51.308Z,23.12
2023-05-14T14:18:19.064Z,22.48
2023-05-14T14:20:46.625Z,23.03
2023-05-14T14:23:14.026Z,20.40
2023-05-14T14:25:41.780Z,18.33
2023-05-14T14:28:09.344Z,20.40
2023-05-14T14:30:36.991Z,19.23
2023-05-14T14:33:04.866Z,19.90
2023-05-14T14:35:33.575Z,22.03
2023-05-14T14:38:01.034Z,19.58
2023-05-14T14:40:29.927Z,21.87
2023-05-14T14:42:57.306Z,20.70
2023-05-14T14:45:25.039Z,23.27
2023-05-14T14:47:52.875Z,19.47
2023-05-14T14:50:20.214Z,19.70
2023-05-14T14:52:48.159Z,18.60
2023-05-14T14:55:16.128Z,18.05
2023-05-14T14:57:43.564Z,16.77
2023-05-14T15:00:11.709Z,17.67
2023-05-14T15:02:42.218Z,18.50
2023-05-14T15:05:10.111Z,17.17
2023-05-14T15:07:37.423Z,18.67
2023-05-14T15:10:05.786Z,16.00
2023-05-14T15:12:33.136Z,18.30
2023-05-14T15:15:00.575Z,15.27
2023-05-14T15:17:28.313Z,19.07
2023-05-14T15:19:55.661Z,16.67
2023-05-14T15:22:23.069Z,19.07
2023-05-14T15:24:51.176Z,18.63
2023-05-14T15:27:18.470Z,23.87
2023-05-14T15:29:45.790Z,17.83
2023-05-14T15:32:13.502Z,17.03
2023-05-14T15:34:41.063Z,25.27
2023-05-14T15:37:08.557Z,32.13
2023-05-14T15:39:36.155Z,18.77
2023-05-14T15:42:04.497Z,17.47
2023-05-14T15:44:31.964Z,13.40
2023-05-14T15:46:59.661Z,12.10
2023-05-14T15:49:26.938Z,12.43
2023-05-14T15:51:54.980Z,13.37
2023-05-14T15:54:22.694Z,16.37
2023-05-14T15:56:50.907Z,11.63
2023-05-14T15:59:18.288Z,11.03
2023-05-14T16:01:46.060Z,10.77
2023-05-14T16:04:13.895Z,10.73
2023-05-14T16:06:42.813Z,11.03
2023-05-14T16:09:10.258Z,9.18
2023-05-14T16:11:38.070Z,8.63
2023-05-14T16:14:05.646Z,9.67
2023-05-14T16:16:33.063Z,9.13
2023-05-14T16:19:00.879Z,8.63
2023-05-14T16:21:28.256Z,10.47
2023-05-14T16:23:55.627Z,7.00
2023-05-14T16:26:23.293Z,18.63
2023-05-14T16:28:50.610Z,18.83
2023-05-14T16:31:18.004Z,23.10
2023-05-14T16:33:45.689Z,11.17
2023-05-14T16:36:13.227Z,12.43
2023-05-14T16:38:48.338Z,11.67
2023-05-14T16:41:24.761Z,16.13
2023-05-14T16:43:52.562Z,10.20
2023-05-14T16:46:20.456Z,6.27
2023-05-14T16:48:48.171Z,8.00
2023-05-14T16:51:15.470Z,7.20
2023-05-14T16:53:42.829Z,5.10
2023-05-14T16:56:11.161Z,5.20
2023-05-14T16:58:38.807Z,9.23
2023-05-14T17:01:09.362Z,5.23
2023-05-14T17:03:37.463Z,3.93
2023-05-14T17:06:05.029Z,4.37
2023-05-14T17:08:33.776Z,5.87
2023-05-14T17:11:02.284Z,7.30
2023-05-14T17:13:29.740Z,12.03
2023-05-14T17:15:57.060Z,12.53
2023-05-14T17:18:24.833Z,14.57
2023-05-14T17:20:52.356Z,6.93
2023-05-14T17:23:20.557Z,5.27
2023-05-14T17:25:48.386Z,14.48
2023-05-14T17:28:15.731Z,10.40
2023-05-14T17:30:43.120Z,6.30
2023-05-14T17:33:11.809Z,5.63
2023-05-14T17:35:39.378Z,8.27
2023-05-14T17:38:06.905Z,20.63
2023-05-14T17:40:34.824Z,28.10
2023-05-14T17:43:02.181Z,11.63
2023-05-14T17:45:36.446Z,7.37
2023-05-14T17:48:10.705Z,3.20
2023-05-14T17:50:39.356Z,3.00
2023-05-14T17:53:06.670Z,2.95
2023-05-14T17:55:40.125Z,2.40
2023-05-14T17:58:07.661Z,2.53
2023-05-14T18:00:35.383Z,2.43
2023-05-14T18:03:03.182Z,2.30
2023-05-14T18:05:32.417Z,3.77
2023-05-14T18:08:00.228Z,2.40
2023-05-14T18:10:29.837Z,2.25
2023-05-14T18:12:57.185Z,3.33
2023-05-14T18:15:25.903Z,2.20
2023-05-14T18:20:21.143Z,7.60
2023-05-14T18:22:48.546Z,2.53
2023-05-14T18:25:16.913Z,5.90
2023-05-14T18:27:45.239Z,2.40
2023-05-14T18:30:14.963Z,2.30
2023-05-14T18:32:44.775Z,2.70
2023-05-14T18:35:18.964Z,2.80
2023-05-14T18:37:49.189Z,5.57
2023-05-14T18:40:18.959Z,14.13
2023-05-14T18:42:47.306Z,8.93
2023-05-14T18:45:14.865Z,6.23
2023-05-14T18:47:42.328Z,4.10
2023-05-14T18:50:10.321Z,4.23
2023-05-14T18:52:38.368Z,3.97
2023-05-14T18:55:06.229Z,3.90
2023-05-14T18:57:34.166Z,4.93
2023-05-14T19:00:03.319Z,3.92
2023-05-14T19:02:32.007Z,8.27
2023-05-14T19:04:59.748Z,3.80
2023-05-14T19:07:27.873Z,5.93
2023-05-14T19:09:55.267Z,6.23
2023-05-14T19:12:22.964Z,7.30
2023-05-14T19:14:50.448Z,8.03
2023-05-14T19:17:19.199Z,7.83
2023-05-14T19:19:48.107Z,10.10
2023-05-14T19:22:16.251Z,8.37
2023-05-14T19:24:43.733Z,5.75
2023-05-14T19:27:13.052Z,8.93
2023-05-14T19:29:40.502Z,8.68
2023-05-14T19:32:08.158Z,9.77
2023-05-14T19:34:36.376Z,9.63
2023-05-14T19:37:05.005Z,8.33
2023-05-14T19:39:33.111Z,14.27
2023-05-14T19:42:06.117Z,10.60
2023-05-14T19:44:35.866Z,8.97
2023-05-14T19:47:04.876Z,8.35
2023-05-14T19:49:32.727Z,8.15
2023-05-14T19:52:05.577Z,7.83
2023-05-14T19:54:33.508Z,6.30
2023-05-14T19:57:00.985Z,7.57
2023-05-14T19:59:30.121Z,8.37
2023-05-14T20:02:00.998Z,8.25
2023-05-14T20:04:31.605Z,10.53
2023-05-14T20:07:03.482Z,8.67
2023-05-14T20:09:33.248Z,8.60
2023-05-14T20:12:07.279Z,10.07
2023-05-14T20:14:36.797Z,10.40
2023-05-14T20:17:06.829Z,10.37
2023-05-14T20:19:35.747Z,10.50
2023-05-14T20:22:03.923Z,12.65
2023-05-14T20:24:31.589Z,9.65
2023-05-14T20:26:59.759Z,10.17
2023-05-14T20:29:27.318Z,9.90
2023-05-14T20:31:56.500Z,11.10
2023-05-14T20:34:25.752Z,11.50
2023-05-14T20:36:53.445Z,11.27
2023-05-14T20:39:21.426Z,8.83
2023-05-14T20:41:50.082Z,13.77
2023-05-14T20:44:19.861Z,12.47
2023-05-14T20:46:48.740Z,17.33
2023-05-14T20:49:16.980Z,10.65
2023-05-14T20:51:44.493Z,9.93
2023-05-14T20:54:11.980Z,11.40
2023-05-14T20:56:39.919Z,10.87
2023-05-14T20:59:07.631Z,10.37
2023-05-14T21:01:36.270Z,15.85
2023-05-14T21:04:04.246Z,11.70
2023-05-14T21:06:31.874Z,9.60
2023-05-14T21:08:59.195Z,11.70
2023-05-14T21:11:27.195Z,10.20
2023-05-14T21:13:54.559Z,11.87
2023-05-14T21:16:22.110Z,9.73
2023-05-14T21:18:49.938Z,10.60
2023-05-14T21:21:17.353Z,12.37
2023-05-14T21:23:44.717Z,12.43
2023-05-14T21:26:12.612Z,9.10
2023-05-14T21:28:39.951Z,12.87
2023-05-14T21:31:07.478Z,8.73
2023-05-14T21:33:35.167Z,10.33
2023-05-14T21:36:02.569Z,8.33
2023-05-14T21:38:30.031Z,12.87
2023-05-14T21:40:58.076Z,11.57
2023-05-14T21:43:27.069Z,11.07
2023-05-14T21:45:54.358Z,11.53
2023-05-14T21:48:22.637Z,10.50
2023-05-14T21:50:50.016Z,9.73
2023-05-14T21:53:17.308Z,10.07
2023-05-14T21:55:45.044Z,8.13
2023-05-14T21:58:12.507Z,10.67
2023-05-14T22:00:40.058Z,8.97
2023-05-14T22:03:08.664Z,8.93
2023-05-14T22:05:36.183Z,8.67
2023-05-14T22:08:03.445Z,8.87
2023-05-14T22:10:34.533Z,9.00
2023-05-14T22:13:01.798Z,8.88
2023-05-14T22:15:29.125Z,10.07
2023-05-14T22:17:57.160Z,12.53
2023-05-14T22:20:24.575Z,7.70
2023-05-14T22:22:51.885Z,9.50
2023-05-14T22:25:19.487Z,7.03
2023-05-14T22:27:46.797Z,6.20
2023-05-14T22:30:14.128Z,8.80
2023-05-14T22:32:41.758Z,6.93
2023-05-14T22:35:09.349Z,7.00
2023-05-14T22:37:36.709Z,7.50
2023-05-14T22:40:05.404Z,8.00
2023-05-14T22:42:32.661Z,7.45
2023-05-14T22:44:59.866Z,8.43
2023-05-14T22:47:27.628Z,5.30
2023-05-14T22:49:54.907Z,8.23
2023-05-14T22:52:22.200Z,7.70
2023-05-14T22:54:51.201Z,7.27
2023-05-14T22:57:18.542Z,9.93
2023-05-14T22:59:45.706Z,6.83
2023-05-14T23:02:13.491Z,6.53
2023-05-14T23:04:41.096Z,11.07
2023-05-14T23:07:08.381Z,7.40
2023-05-14T23:09:36.056Z,8.47
2023-05-14T23:12:03.450Z,16.50
2023-05-14T23:14:30.711Z,10.17
2023-05-14T23:17:02.032Z,8.33
2023-05-14T23:19:29.581Z,11.90
2023-05-14T23:21:58.478Z,11.37
2023-05-14T23:26:53.713Z,6.67
2023-05-14T23:29:20.995Z,11.20
2023-05-14T23:31:48.578Z,5.87
2023-05-14T23:34:16.290Z,6.37
2023-05-14T23:36:43.808Z,7.87
2023-05-14T23:39:11.629Z,8.07
2023-05-14T23:41:38.859Z,6.73
2023-05-14T23:44:06.336Z,6.30
2023-05-14T23:46:35.018Z,5.57
2023-05-14T23:49:02.256Z,10.52
2023-05-14T23:51:29.822Z,6.17
2023-05-14T23:53:58.713Z,6.20
2023-05-14T23:56:27.532Z,6.65
2023-05-14T23:58:55.583Z,5.35
